Time;durP1;ratioP1;P1;durP2;ratioP2;P2;SDS_P1;SDS_P2;PMS_P1;PMS_P2;Temp;Humidity;BMP_temperature;BMP_pressure;BME280_temperature;BME280_humidity;BME280_pressure;Samples;Min_cycle;Max_cycle;Signal;HPM_P1;HPM_P2
2023/01/10 00:01:25;;;;;;;13.05;2.50;;;5.00;99.90;;;;;;5067985;28;20501;-86
2023/01/10 00:03:51;;;;;;;10.43;2.20;;;5.00;99.90;;;;;;5026927;28;20044;-86
2023/01/10 00:06:17;;;;;;;14.10;2.60;;;5.30;99.90;;;;;;5024756;28;20048;-86
2023/01/10 00:08:42;;;;;;;11.13;2.25;;;5.00;99.90;;;;;;5025264;28;20410;-85
2023/01/10 00:13:56;;;;;;;13.85;2.58;;;4.90;99.90;;;;;;5065818;28;20080;-86
2023/01/10 00:16:22;;;;;;;11.52;2.30;;;4.90;99.90;;;;;;5023119;28;20029;-86
2023/01/10 00:18:48;;;;;;;13.50;2.33;;;4.90;99.90;;;;;;5035813;28;20592;-86
2023/01/10 00:21:14;;;;;;;10.93;2.20;;;5.30;99.90;;;;;;5033248;28;20150;-84
2023/01/10 00:23:42;;;;;;;13.40;2.55;;;4.80;99.90;;;;;;5047970;28;20045;-85
2023/01/10 00:26:08;;;;;;;17.00;3.05;;;4.80;99.90;;;;;;5053845;28;20731;-86
2023/01/10 00:28:34;;;;;;;12.77;2.60;;;5.30;99.90;;;;;;5052137;28;20037;-86
2023/01/10 00:31:05;;;;;;;15.10;3.33;;;4.80;99.90;;;;;;5066224;28;20108;-86
2023/01/10 00:33:39;;;;;;;16.25;3.10;;;4.80;99.90;;;;;;5042448;28;20435;-86
2023/01/10 00:36:07;;;;;;;16.23;2.65;;;5.00;99.90;;;;;;5051529;28;20532;-86
2023/01/10 00:38:34;;;;;;;13.55;2.95;;;4.90;99.90;;;;;;5045810;28;20039;-86
2023/01/10 00:41:01;;;;;;;15.88;2.90;;;4.90;99.90;;;;;;5045482;28;20106;-86
2023/01/10 00:46:11;;;;;;;17.13;2.90;;;4.90;99.90;;;;;;5051199;28;20486;-87
2023/01/10 00:48:37;;;;;;;13.95;2.80;;;4.90;99.90;;;;;;5061114;28;20155;-87
2023/01/10 00:51:04;;;;;;;19.50;3.30;;;4.90;99.90;;;;;;5059702;28;20535;-85
2023/01/10 00:53:29;;;;;;;16.75;3.33;;;5.00;99.90;;;;;;5057352;28;20083;-85
2023/01/10 00:55:56;;;;;;;16.92;3.55;;;5.00;99.90;;;;;;5067398;28;20072;-85
2023/01/10 00:58:22;;;;;;;20.70;3.40;;;5.50;99.90;;;;;;5062522;28;20429;-86
2023/01/10 01:00:48;;;;;;;18.70;3.22;;;5.10;99.90;;;;;;5057921;28;20052;-85
2023/01/10 01:03:17;;;;;;;18.83;3.70;;;5.10;99.90;;;;;;5045450;28;20032;-85
2023/01/10 01:05:44;;;;;;;20.70;3.35;;;5.10;99.90;;;;;;5047151;28;20037;-86
2023/01/10 01:08:11;;;;;;;19.42;3.40;;;5.40;99.90;;;;;;5059289;28;20041;-86
2023/01/10 01:10:37;;;;;;;19.60;3.53;;;5.20;99.90;;;;;;5062574;28;20041;-87
2023/01/10 01:13:20;;;;;;;24.25;3.65;;;5.20;99.90;;;;;;5054529;28;20497;-87
2023/01/10 01:15:47;;;;;;;18.55;3.38;;;5.40;99.90;;;;;;5061809;28;20036;-85
2023/01/10 01:18:15;;;;;;;15.43;3.10;;;5.40;99.90;;;;;;5061215;28;20044;-86
2023/01/10 01:20:42;;;;;;;14.43;2.97;;;5.40;99.90;;;;;;5063175;28;20045;-86
2023/01/10 01:23:08;;;;;;;18.45;3.13;;;5.50;99.90;;;;;;5041501;28;20052;-85
2023/01/10 01:25:34;;;;;;;17.58;3.28;;;5.50;99.90;;;;;;5053336;28;20044;-85
2023/01/10 01:27:59;;;;;;;13.15;2.75;;;5.60;99.90;;;;;;5052524;28;20145;-85
2023/01/10 01:30:25;;;;;;;18.52;3.20;;;5.80;99.90;;;;;;5065778;28;20036;-85
2023/01/10 01:32:51;;;;;;;14.32;2.90;;;5.60;99.90;;;;;;5065301;28;20102;-85
2023/01/10 01:35:17;;;;;;;13.80;3.63;;;5.60;99.90;;;;;;5051783;28;20040;-86
2023/01/10 01:37:43;;;;;;;18.90;3.25;;;5.60;99.90;;;;;;5065195;28;20106;-86
2023/01/10 01:40:17;;;;;;;19.50;3.25;;;5.70;99.90;;;;;;5046970;28;20033;-88
2023/01/10 01:42:43;;;;;;;15.32;3.05;;;5.60;99.90;;;;;;5047279;28;20051;-86
2023/01/10 01:45:08;;;;;;;18.50;3.40;;;5.60;99.90;;;;;;5048729;28;20040;-86
2023/01/10 01:47:48;;;;;;;17.73;3.88;;;5.50;99.90;;;;;;5052011;28;20043;-87
2023/01/10 01:50:20;;;;;;;21.30;3.40;;;5.50;99.90;;;;;;5051239;28;20470;-86
2023/01/10 01:52:48;;;;;;;15.50;3.20;;;5.50;99.90;;;;;;5040910;28;20044;-87
2023/01/10 01:55:14;;;;;;;18.20;3.42;;;5.50;99.90;;;;;;5055997;28;20102;-86
2023/01/10 01:57:40;;;;;;;19.77;3.22;;;5.50;99.90;;;;;;5035083;28;20045;-86
2023/01/10 02:00:06;;;;;;;16.25;3.55;;;5.80;99.90;;;;;;5036920;28;20528;-87
2023/01/10 02:02:38;;;;;;;14.18;2.95;;;5.50;99.90;;;;;;5047921;28;20033;-88
2023/01/10 02:05:09;;;;;;;17.92;3.13;;;5.60;99.90;;;;;;5071277;28;20076;-86
2023/01/10 02:07:37;;;;;;;20.13;3.90;;;5.50;99.90;;;;;;5065343;28;20090;-87
2023/01/10 02:10:38;;;;;;;18.08;3.10;;;5.50;99.90;;;;;;5087940;28;20115;-87
2023/01/10 02:13:06;;;;;;;18.67;3.30;;;5.50;99.90;;;;;;5031108;28;20055;-86
2023/01/10 02:15:32;;;;;;;22.05;4.07;;;5.50;99.90;;;;;;5057241;28;20033;-86
2023/01/10 02:18:00;;;;;;;19.58;3.25;;;5.50;99.90;;;;;;5066477;28;20481;-86
2023/01/10 02:20:29;;;;;;;21.05;4.10;;;5.60;99.90;;;;;;5072870;28;20048;-87
2023/01/10 02:23:18;;;;;;;19.90;3.58;;;5.70;99.90;;;;;;5069199;28;20481;-86
2023/01/10 02:26:12;;;;;;;16.70;2.97;;;5.60;99.90;;;;;;5048948;28;20051;-86
2023/01/10 02:28:55;;;;;;;;;;;5.60;99.90;;;;;;5049757;28;20405;-86
2023/01/10 02:31:36;;;;;;;;;;;5.60;99.90;;;;;;5058492;28;20216;-86
2023/01/10 02:34:15;;;;;;;15.93;3.53;;;5.60;99.90;;;;;;5087355;28;20006;-85
2023/01/10 02:36:53;;;;;;;19.88;4.10;;;5.70;99.90;;;;;;5061263;28;20413;-85
2023/01/10 02:39:34;;;;;;;20.02;3.42;;;5.70;99.90;;;;;;5051720;28;20040;-86
2023/01/10 02:42:29;;;;;;;20.67;3.55;;;5.70;99.90;;;;;;5057744;28;20116;-86
2023/01/10 02:45:05;;;;;;;18.55;3.30;;;5.70;99.90;;;;;;5048481;28;20266;-85
2023/01/10 02:47:39;;;;;;;16.40;3.40;;;5.90;99.90;;;;;;5044342;28;20591;-86
2023/01/10 02:50:29;;;;;;;19.52;3.25;;;5.90;99.90;;;;;;5061439;28;20122;-86
2023/01/10 02:53:00;;;;;;;19.80;3.47;;;5.60;99.90;;;;;;5053898;28;20051;-86
2023/01/10 02:56:00;;;;;;;19.20;3.65;;;5.60;99.90;;;;;;5061307;28;20308;-85
2023/01/10 02:58:50;;;;;;;17.25;3.50;;;5.60;99.90;;;;;;5051832;28;20053;-85
2023/01/10 03:01:24;;;;;;;16.02;3.13;;;5.60;99.90;;;;;;5090831;28;20041;-87
2023/01/10 03:04:16;;;;;;;17.55;3.50;;;6.00;99.90;;;;;;5067743;28;20054;-84
2023/01/10 03:06:58;;;;;;;14.73;3.15;;;5.80;99.90;;;;;;5063938;28;20052;-85
2023/01/10 03:09:32;;;;;;;17.38;3.35;;;5.60;99.90;;;;;;5073474;28;20036;-86
2023/01/10 03:12:08;;;;;;;16.38;3.70;;;5.60;99.90;;;;;;5080171;28;20049;-87
2023/01/10 03:14:37;;;;;;;16.38;3.17;;;5.60;99.90;;;;;;5073334;28;20170;-86
2023/01/10 03:17:06;;;;;;;16.92;3.47;;;5.60;99.90;;;;;;5068840;28;20032;-85
2023/01/10 03:19:43;;;;;;;18.13;3.40;;;6.20;99.90;;;;;;5065346;28;20202;-84
2023/01/10 03:22:13;;;;;;;15.65;2.95;;;5.60;99.90;;;;;;5070100;28;20058;-86
2023/01/10 03:24:50;;;;;;;13.95;2.90;;;5.70;99.90;;;;;;5059853;28;20044;-85
2023/01/10 03:27:21;;;;;;;20.00;3.50;;;5.50;99.90;;;;;;5070696;28;20067;-87
2023/01/10 03:29:58;;;;;;;14.68;3.25;;;5.50;99.90;;;;;;5062548;28;20101;-87
2023/01/10 03:32:27;;;;;;;19.40;3.70;;;5.80;99.90;;;;;;5071118;28;20055;-87
2023/01/10 03:34:53;;;;;;;16.42;3.63;;;5.50;99.90;;;;;;5046700;28;20052;-87
2023/01/10 03:37:35;;;;;;;15.63;3.70;;;5.60;99.90;;;;;;5053797;28;20464;-87
2023/01/10 03:40:31;;;;;;;13.48;3.63;;;5.40;99.90;;;;;;5070348;28;20033;-88
2023/01/10 03:46:10;;;;;;;19.02;3.55;;;5.40;99.90;;;;;;5063896;28;20098;-86
2023/01/10 03:48:40;;;;;;;20.08;3.22;;;5.50;99.90;;;;;;5038525;28;20444;-86
2023/01/10 03:51:07;;;;;;;16.63;3.35;;;5.50;99.90;;;;;;5062974;28;20122;-86
2023/01/10 03:53:35;;;;;;;15.68;2.92;;;5.60;99.90;;;;;;5067158;28;20044;-86
2023/01/10 03:56:01;;;;;;;19.25;3.42;;;5.60;99.90;;;;;;5058423;28;20036;-86
2023/01/10 03:58:30;;;;;;;17.48;3.15;;;5.60;99.90;;;;;;5043996;28;20036;-86
2023/01/10 04:00:56;;;;;;;18.50;3.05;;;5.70;99.90;;;;;;5062538;28;20072;-86
2023/01/10 04:03:22;;;;;;;15.05;3.63;;;5.70;99.90;;;;;;5054528;28;20525;-86
2023/01/10 04:05:48;;;;;;;16.80;4.30;;;5.90;99.90;;;;;;5067314;28;20046;-85
2023/01/10 04:08:13;;;;;;;17.17;3.83;;;5.80;99.90;;;;;;5050528;28;20042;-85
2023/01/10 04:10:39;;;;;;;19.50;3.30;;;6.30;99.90;;;;;;5036753;28;20093;-85
2023/01/10 04:13:05;;;;;;;18.17;3.28;;;5.80;99.90;;;;;;5061773;28;20497;-86
2023/01/10 04:15:31;;;;;;;15.65;3.13;;;6.00;99.90;;;;;;5050523;28;20124;-87
2023/01/10 04:17:57;;;;;;;15.68;3.42;;;5.90;99.90;;;;;;5046199;28;20443;-85
2023/01/10 04:20:26;;;;;;;15.75;3.20;;;5.70;99.90;;;;;;5038379;28;20036;-85
2023/01/10 04:22:53;;;;;;;15.18;3.00;;;5.70;99.90;;;;;;5022652;28;20033;-86
2023/01/10 04:25:20;;;;;;;16.10;2.95;;;6.20;99.90;;;;;;5027487;28;20040;-86
2023/01/10 04:27:49;;;;;;;16.80;3.88;;;5.60;99.90;;;;;;5048163;28;20044;-86
2023/01/10 04:30:15;;;;;;;17.80;3.00;;;5.70;99.90;;;;;;5043040;28;20044;-85
2023/01/10 04:32:41;;;;;;;17.65;3.35;;;5.70;99.90;;;;;;5063175;28;20036;-86
2023/01/10 04:35:07;;;;;;;15.52;3.55;;;5.70;99.90;;;;;;5065716;28;20059;-86
2023/01/10 04:37:33;;;;;;;12.65;3.30;;;5.80;99.90;;;;;;5054281;28;20055;-86
2023/01/10 04:39:59;;;;;;;16.73;3.50;;;5.80;99.90;;;;;;5053655;28;20481;-86
2023/01/10 04:42:24;;;;;;;16.10;3.38;;;5.80;99.90;;;;;;5051701;28;20576;-85
2023/01/10 04:44:50;;;;;;;19.48;3.70;;;5.70;99.90;;;;;;5035242;28;20043;-85
2023/01/10 04:47:16;;;;;;;15.25;3.10;;;5.80;99.90;;;;;;5030323;28;20181;-86
2023/01/10 04:49:41;;;;;;;15.27;3.15;;;5.70;99.90;;;;;;5050730;28;20067;-86
2023/01/10 04:52:07;;;;;;;14.95;3.45;;;5.70;99.90;;;;;;5067130;28;20130;-86
2023/01/10 04:54:33;;;;;;;14.63;3.10;;;5.60;99.90;;;;;;5022993;28;20048;-86
2023/01/10 04:56:58;;;;;;;17.52;3.67;;;5.60;99.90;;;;;;5031601;28;20106;-86
2023/01/10 04:59:24;;;;;;;15.50;3.03;;;5.70;99.90;;;;;;5044727;28;20111;-86
2023/01/10 05:01:50;;;;;;;17.40;3.67;;;5.60;99.90;;;;;;5056709;28;20047;-86
2023/01/10 05:04:15;;;;;;;14.48;3.10;;;5.70;99.90;;;;;;5043683;28;20413;-86
2023/01/10 05:06:41;;;;;;;18.42;4.07;;;5.70;99.90;;;;;;5070637;28;20037;-85
2023/01/10 05:09:08;;;;;;;24.73;4.18;;;5.80;99.90;;;;;;5028576;28;20040;-86
2023/01/10 05:11:34;;;;;;;15.60;3.40;;;5.80;99.90;;;;;;5061730;28;20048;-85
2023/01/10 05:14:00;;;;;;;16.40;3.97;;;5.80;99.90;;;;;;5062917;28;20393;-85
2023/01/10 05:16:27;;;;;;;19.88;3.35;;;5.90;99.90;;;;;;5065969;28;20529;-85
2023/01/10 05:18:52;;;;;;;18.70;3.45;;;5.90;99.90;;;;;;5046647;28;20442;-85
2023/01/10 05:21:18;;;;;;;15.82;3.85;;;5.90;99.90;;;;;;5053723;28;20059;-87
2023/01/10 05:23:43;;;;;;;13.43;3.38;;;5.80;99.90;;;;;;5062972;28;20072;-85
2023/01/10 05:26:11;;;;;;;14.75;3.00;;;5.80;99.90;;;;;;5048584;28;20040;-86
2023/01/10 05:28:37;;;;;;;15.25;3.30;;;5.80;99.90;;;;;;5068331;28;20038;-85
2023/01/10 05:31:06;;;;;;;18.98;3.40;;;5.70;99.90;;;;;;5045593;28;20088;-85
2023/01/10 05:33:32;;;;;;;17.27;3.42;;;6.30;99.90;;;;;;5042645;28;20109;-86
2023/01/10 05:36:00;;;;;;;15.55;3.13;;;5.80;99.90;;;;;;5038881;28;20558;-86
2023/01/10 05:38:28;;;;;;;13.77;2.78;;;6.00;99.90;;;;;;5041671;28;20037;-84
2023/01/10 05:40:55;;;;;;;14.13;2.83;;;5.80;99.90;;;;;;5048035;28;20044;-86
2023/01/10 05:43:21;;;;;;;16.25;3.35;;;5.90;99.90;;;;;;5040704;28;20044;-85
2023/01/10 05:45:47;;;;;;;15.52;3.45;;;5.90;99.90;;;;;;5059551;28;20527;-85
2023/01/10 05:48:12;;;;;;;14.73;2.85;;;5.90;99.90;;;;;;5054427;28;20064;-85
2023/01/10 05:50:38;;;;;;;10.40;2.67;;;6.00;99.90;;;;;;5060116;28;20406;-85
2023/01/10 05:53:04;;;;;;;18.58;3.35;;;5.90;99.90;;;;;;5027572;28;20036;-86
2023/01/10 05:55:30;;;;;;;12.48;2.90;;;5.90;99.90;;;;;;5030620;28;20058;-87
2023/01/10 05:57:56;;;;;;;13.65;3.58;;;5.90;99.90;;;;;;5063904;28;20029;-87
2023/01/10 06:00:22;;;;;;;13.13;3.05;;;6.00;99.90;;;;;;5024797;28;20070;-84
2023/01/10 06:02:48;;;;;;;13.85;3.00;;;6.00;99.90;;;;;;5027181;28;20043;-85
2023/01/10 06:05:14;;;;;;;17.27;4.22;;;6.00;99.90;;;;;;5021512;28;20099;-85
2023/01/10 06:07:40;;;;;;;19.95;3.97;;;6.00;99.90;;;;;;5056654;28;20045;-84
2023/01/10 06:10:06;;;;;;;19.08;4.22;;;6.30;99.90;;;;;;5037006;28;20039;-85
2023/01/10 06:12:31;;;;;;;18.20;3.33;;;6.00;99.90;;;;;;5070647;28;20245;-85
2023/01/10 06:14:57;;;;;;;16.02;3.67;;;6.00;99.90;;;;;;5060913;28;20217;-85
2023/01/10 06:17:23;;;;;;;18.55;3.92;;;6.40;99.90;;;;;;5041590;28;20064;-84
2023/01/10 06:19:51;;;;;;;18.55;3.67;;;6.00;99.90;;;;;;5060847;28;20033;-85
2023/01/10 06:22:16;;;;;;;18.33;4.50;;;5.90;99.90;;;;;;5055603;28;20094;-85
2023/01/10 06:24:42;;;;;;;18.13;3.72;;;5.90;99.90;;;;;;5043197;28;20040;-85
2023/01/10 06:27:08;;;;;;;14.98;3.55;;;6.00;99.90;;;;;;5034050;28;20049;-85
2023/01/10 06:29:34;;;;;;;20.70;4.15;;;5.80;99.90;;;;;;5055679;28;20043;-84
2023/01/10 06:32:00;;;;;;;16.45;3.70;;;5.80;99.90;;;;;;5040068;28;20033;-85
2023/01/10 06:34:25;;;;;;;19.10;4.10;;;5.70;99.90;;;;;;5043811;28;20390;-84
2023/01/10 06:36:51;;;;;;;16.00;3.85;;;6.00;99.90;;;;;;5037587;28;20032;-85
2023/01/10 06:39:17;;;;;;;13.40;3.75;;;5.70;99.90;;;;;;5049255;28;20059;-84
2023/01/10 06:41:42;;;;;;;18.70;3.83;;;5.70;99.90;;;;;;5012946;28;20040;-85
2023/01/10 06:44:08;;;;;;;16.17;3.60;;;5.70;99.90;;;;;;5031722;28;20056;-85
2023/01/10 06:46:34;;;;;;;15.77;3.95;;;5.90;99.90;;;;;;5007824;28;20486;-85
2023/01/10 06:49:00;;;;;;;16.67;3.92;;;5.60;99.90;;;;;;5045269;28;20405;-85
2023/01/10 06:51:25;;;;;;;14.25;3.55;;;5.70;99.90;;;;;;5079644;28;20051;-84
2023/01/10 06:53:51;;;;;;;14.27;3.58;;;5.60;99.90;;;;;;5071305;28;20067;-85
2023/01/10 06:56:17;;;;;;;15.90;3.70;;;6.00;99.90;;;;;;5034956;28;20037;-84
2023/01/10 06:58:43;;;;;;;19.67;3.67;;;5.60;99.90;;;;;;5034718;28;20032;-85
2023/01/10 07:01:14;;;;;;;14.75;3.25;;;5.70;99.90;;;;;;5043402;28;20037;-85
2023/01/10 07:03:40;;;;;;;16.35;3.42;;;5.50;99.90;;;;;;5052236;28;20146;-84
2023/01/10 07:06:09;;;;;;;12.35;3.25;;;5.50;99.90;;;;;;5049983;28;20087;-85
2023/01/10 07:08:44;;;;;;;18.63;3.50;;;5.50;99.90;;;;;;5044193;28;20491;-85
2023/01/10 07:11:11;;;;;;;14.88;3.53;;;5.40;99.90;;;;;;5057424;28;20040;-85
2023/01/10 07:13:36;;;;;;;15.45;3.25;;;5.40;99.90;;;;;;5057000;28;20048;-85
2023/01/10 07:16:11;;;;;;;15.90;3.17;;;5.50;99.90;;;;;;5031992;28;20105;-85
2023/01/10 07:18:38;;;;;;;16.98;3.17;;;5.60;99.90;;;;;;5043897;28;20465;-85
2023/01/10 07:21:04;;;;;;;14.95;3.00;;;5.40;99.90;;;;;;5061649;28;20513;-86
2023/01/10 07:23:30;;;;;;;11.27;2.72;;;5.40;99.90;;;;;;5027567;28;20056;-85
2023/01/10 07:25:58;;;;;;;16.10;3.33;;;5.60;99.90;;;;;;5045903;28;20115;-85
2023/01/10 07:28:23;;;;;;;16.83;3.65;;;5.80;99.90;;;;;;5045704;28;20093;-85
2023/01/10 07:30:49;;;;;;;15.05;3.33;;;5.60;99.90;;;;;;5065305;28;20048;-85
2023/01/10 07:33:15;;;;;;;18.25;3.63;;;5.90;99.90;;;;;;5010370;28;20039;-86
2023/01/10 07:35:41;;;;;;;16.98;3.88;;;5.80;99.90;;;;;;5045503;28;20078;-86
2023/01/10 07:38:07;;;;;;;16.27;3.72;;;5.70;99.90;;;;;;5064590;28;20036;-86
2023/01/10 07:40:33;;;;;;;19.90;4.30;;;5.70;99.90;;;;;;5049113;28;20089;-86
2023/01/10 07:43:00;;;;;;;18.50;3.95;;;5.80;99.90;;;;;;5063800;28;20119;-86
2023/01/10 07:45:27;;;;;;;14.23;3.85;;;5.80;99.90;;;;;;5028238;28;20056;-85
2023/01/10 07:48:01;;;;;;;17.70;4.38;;;6.10;99.90;;;;;;5046950;28;20190;-86
2023/01/10 07:50:29;;;;;;;19.35;4.43;;;5.80;99.90;;;;;;5062845;28;20502;-86
2023/01/10 07:52:55;;;;;;;18.92;4.22;;;5.80;99.90;;;;;;5041256;28;20045;-86
2023/01/10 07:55:21;;;;;;;24.00;4.63;;;5.80;99.90;;;;;;5044339;28;20120;-86
2023/01/10 07:57:49;;;;;;;16.38;4.13;;;5.90;99.90;;;;;;5063153;28;20033;-85
2023/01/10 08:00:16;;;;;;;21.17;4.70;;;5.90;99.90;;;;;;5062480;28;20029;-86
2023/01/10 08:02:42;;;;;;;24.40;4.57;;;5.90;99.90;;;;;;5021641;28;20123;-85
2023/01/10 08:05:08;;;;;;;16.95;4.10;;;5.80;99.90;;;;;;5041594;28;20514;-86
2023/01/10 08:07:34;;;;;;;28.33;4.68;;;5.90;99.90;;;;;;5008707;28;20028;-86
2023/01/10 08:10:00;;;;;;;24.65;5.00;;;5.90;99.90;;;;;;5031292;28;20036;-86
2023/01/10 08:12:26;;;;;;;22.95;5.28;;;6.00;99.90;;;;;;5039344;28;20121;-86
2023/01/10 08:14:52;;;;;;;25.67;4.72;;;6.00;99.90;;;;;;5063655;28;20206;-86
2023/01/10 08:17:18;;;;;;;25.23;4.97;;;6.00;99.90;;;;;;5062467;28;20601;-86
2023/01/10 08:19:44;;;;;;;23.90;5.00;;;6.00;99.90;;;;;;5061895;28;20490;-86
2023/01/10 08:22:11;;;;;;;22.35;4.65;;;6.10;99.90;;;;;;5061822;28;20047;-86
2023/01/10 08:24:37;;;;;;;24.92;5.07;;;6.50;99.90;;;;;;5060390;28;20035;-86
2023/01/10 08:27:03;;;;;;;25.85;5.15;;;6.10;99.90;;;;;;5062025;28;20036;-86
2023/01/10 08:29:29;;;;;;;25.63;5.07;;;6.00;99.90;;;;;;5059758;28;20056;-85
2023/01/10 08:31:55;;;;;;;26.45;5.90;;;6.00;99.90;;;;;;5045498;28;20037;-86
2023/01/10 08:34:21;;;;;;;24.27;4.65;;;6.00;99.90;;;;;;5063035;28;20056;-86
2023/01/10 08:36:53;;;;;;;23.27;4.93;;;6.00;99.90;;;;;;5064356;28;20052;-86
2023/01/10 08:39:25;;;;;;;20.10;4.97;;;6.10;99.90;;;;;;5061469;28;20028;-86
2023/01/10 08:41:51;;;;;;;25.33;5.10;;;6.10;99.90;;;;;;5043104;28;20521;-86
2023/01/10 08:44:17;;;;;;;22.70;5.03;;;6.10;99.90;;;;;;5061294;28;20037;-86
2023/01/10 08:46:44;;;;;;;24.33;5.03;;;6.10;99.90;;;;;;5044244;28;20507;-86
2023/01/10 08:49:10;;;;;;;23.40;4.50;;;6.60;99.90;;;;;;5047189;28;20043;-85
2023/01/10 08:51:35;;;;;;;26.92;4.45;;;6.20;99.90;;;;;;5029748;28;20378;-86
2023/01/10 08:54:01;;;;;;;25.60;4.93;;;6.20;99.90;;;;;;5054412;28;20286;-86
2023/01/10 08:56:27;;;;;;;26.42;5.90;;;6.10;99.90;;;;;;5059291;28;20090;-85
2023/01/10 08:58:53;;;;;;;28.85;5.68;;;6.10;99.90;;;;;;5060607;28;20438;-85
2023/01/10 09:01:18;;;;;;;20.40;4.88;;;6.50;99.90;;;;;;5043847;28;20044;-85
2023/01/10 09:03:44;;;;;;;20.38;4.68;;;6.10;99.90;;;;;;5028988;28;20040;-85
2023/01/10 09:06:10;;;;;;;24.33;5.18;;;6.10;99.90;;;;;;5023398;28;20545;-85
2023/01/10 09:08:36;;;;;;;28.40;4.97;;;6.20;99.90;;;;;;5044990;28;20040;-85
2023/01/10 09:11:03;;;;;;;27.70;6.15;;;6.20;99.90;;;;;;5044893;28;20044;-85
2023/01/10 09:13:29;;;;;;;26.23;4.88;;;6.30;99.90;;;;;;5058040;28;20036;-85
2023/01/10 09:15:55;;;;;;;26.60;5.22;;;6.40;99.90;;;;;;5055952;28;20143;-85
2023/01/10 09:18:22;;;;;;;19.27;4.57;;;6.40;99.90;;;;;;5056588;28;20036;-85
2023/01/10 09:20:49;;;;;;;26.45;5.32;;;6.70;99.90;;;;;;5057361;28;20044;-85
2023/01/10 09:23:18;;;;;;;22.52;4.65;;;6.50;99.90;;;;;;5042324;28;20518;-85
2023/01/10 09:25:49;;;;;;;16.48;4.13;;;6.60;99.90;;;;;;5038465;28;20529;-84
2023/01/10 09:28:16;;;;;;;26.27;5.00;;;6.60;99.90;;;;;;5042718;28;20498;-85
2023/01/10 09:30:43;;;;;;;24.95;4.75;;;6.60;99.90;;;;;;5045549;28;20040;-85
2023/01/10 09:33:09;;;;;;;21.27;4.20;;;6.60;99.90;;;;;;5044501;28;20044;-85
2023/01/10 09:35:37;;;;;;;18.98;4.13;;;6.70;99.90;;;;;;5057406;28;20079;-85
2023/01/10 09:38:06;;;;;;;22.42;4.60;;;6.80;99.90;;;;;;5044849;28;20508;-85
2023/01/10 09:41:05;;;;;;;24.95;4.97;;;6.80;99.90;;;;;;5058796;28;20029;-86
2023/01/10 09:44:02;;;;;;;18.13;4.20;;;6.80;99.90;;;;;;5060384;28;20561;-85
2023/01/10 09:46:56;;;;;;;26.00;4.78;;;6.80;99.90;;;;;;5066844;28;20040;-86
2023/01/10 09:49:47;;;;;;;21.50;4.28;;;6.90;99.90;;;;;;5054616;28;20034;-85
2023/01/10 09:52:29;;;;;;;24.60;4.90;;;6.90;99.90;;;;;;5061239;28;20464;-85
2023/01/10 09:54:57;;;;;;;17.25;4.55;;;6.90;99.90;;;;;;5073263;28;20043;-85
2023/01/10 09:57:24;;;;;;;18.60;4.50;;;6.90;99.90;;;;;;5059143;28;20048;-85
2023/01/10 09:59:52;;;;;;;19.48;4.53;;;6.90;99.90;;;;;;5044723;28;20090;-85
2023/01/10 10:02:38;;;;;;;25.00;5.35;;;6.90;99.90;;;;;;5056139;28;20041;-85
2023/01/10 10:05:23;;;;;;;21.85;5.20;;;7.10;99.90;;;;;;5044631;28;20041;-85
2023/01/10 10:07:55;;;;;;;19.42;4.82;;;6.90;99.90;;;;;;5061972;28;20041;-85
2023/01/10 10:10:25;;;;;;;21.98;4.75;;;6.90;99.90;;;;;;5042484;28;20033;-85
2023/01/10 10:12:59;;;;;;;19.27;5.15;;;6.90;99.90;;;;;;5060793;28;20033;-85
2023/01/10 10:15:34;;;;;;;22.95;4.75;;;7.30;99.90;;;;;;5058178;28;20040;-85
2023/01/10 10:18:31;;;;;;;20.73;4.35;;;6.90;99.90;;;;;;5055050;28;20077;-85
2023/01/10 10:21:08;;;;;;;22.60;5.38;;;6.80;99.90;;;;;;5046348;28;20058;-85
2023/01/10 10:23:57;;;;;;;16.45;4.28;;;6.80;99.90;;;;;;5060575;28;20044;-86
2023/01/10 10:26:29;;;;;;;18.33;4.32;;;6.90;99.90;;;;;;5062174;28;20032;-85
2023/01/10 10:29:06;;;;;;;20.98;4.45;;;6.90;99.90;;;;;;5059326;28;20044;-85
2023/01/10 10:31:35;;;;;;;22.05;4.65;;;6.90;99.90;;;;;;5060606;28;20052;-86
2023/01/10 10:34:20;;;;;;;22.88;5.38;;;6.90;99.90;;;;;;5062645;28;20048;-85
2023/01/10 10:37:07;;;;;;;20.80;4.32;;;6.90;99.90;;;;;;5060800;28;20044;-85
2023/01/10 10:39:47;;;;;;;18.90;4.68;;;7.00;99.90;;;;;;5063459;28;20112;-85
2023/01/10 10:42:16;;;;;;;24.35;4.75;;;7.00;99.90;;;;;;5064780;28;20102;-85
2023/01/10 10:44:55;;;;;;;21.77;4.25;;;7.00;99.90;;;;;;5082353;28;20098;-85
2023/01/10 10:47:22;;;;;;;19.45;4.63;;;7.00;99.90;;;;;;5035248;28;20033;-86
2023/01/10 10:50:14;;;;;;;22.88;5.10;;;7.00;99.90;;;;;;5063748;28;20051;-85
2023/01/10 10:52:41;;;;;;;21.58;4.43;;;7.00;99.90;;;;;;5052153;28;20036;-85
2023/01/10 10:55:14;;;;;;;20.85;4.63;;;7.20;99.90;;;;;;5039760;28;20045;-85
2023/01/10 10:57:41;;;;;;;18.38;4.53;;;7.00;99.90;;;;;;5050512;28;20048;-85
2023/01/10 11:00:13;;;;;;;20.25;4.47;;;7.00;99.90;;;;;;5061778;28;20059;-85
2023/01/10 11:02:44;;;;;;;22.67;4.53;;;7.10;99.90;;;;;;5028092;28;20105;-85
2023/01/10 11:05:19;;;;;;;18.60;4.05;;;7.00;99.90;;;;;;5078430;28;20048;-85
2023/01/10 11:07:45;;;;;;;19.90;4.72;;;7.10;99.90;;;;;;5043838;28;20152;-85
2023/01/10 11:12:49;;;;;;;27.60;5.28;;;7.10;99.90;;;;;;5063224;28;20281;-85
2023/01/10 11:15:46;;;;;;;22.02;5.00;;;7.20;99.90;;;;;;5057579;28;20108;-85
2023/01/10 11:18:21;;;;;;;21.58;4.13;;;7.20;99.90;;;;;;5063101;28;20640;-85
2023/01/10 11:20:48;;;;;;;18.88;5.57;;;7.20;99.90;;;;;;5062555;28;20097;-85
2023/01/10 11:23:44;;;;;;;19.85;5.05;;;7.20;99.90;;;;;;5060888;28;20048;-85
2023/01/10 11:26:24;;;;;;;24.50;5.65;;;7.30;99.90;;;;;;5051698;28;20057;-84
2023/01/10 11:29:08;;;;;;;24.48;5.57;;;7.30;99.90;;;;;;5047553;28;20127;-85
2023/01/10 11:31:35;;;;;;;23.35;5.85;;;7.30;99.90;;;;;;5047880;28;20060;-85
2023/01/10 11:34:18;;;;;;;19.63;5.85;;;7.30;99.90;;;;;;5027589;28;20137;-84
2023/01/10 11:37:04;;;;;;;26.02;6.40;;;7.40;99.90;;;;;;5047842;28;20402;-85
2023/01/10 11:39:31;;;;;;;22.83;6.10;;;7.30;99.90;;;;;;5038317;28;20041;-85
2023/01/10 11:42:10;;;;;;;25.10;6.30;;;7.40;99.90;;;;;;5056215;28;20406;-85
2023/01/10 11:44:36;;;;;;;23.88;6.63;;;7.40;99.90;;;;;;5060888;28;20032;-86
2023/01/10 11:47:04;;;;;;;24.08;6.95;;;7.30;99.90;;;;;;5061574;28;20040;-85
2023/01/10 11:49:37;;;;;;;23.33;5.45;;;7.30;99.90;;;;;;5060140;28;20068;-85
2023/01/10 11:52:13;;;;;;;24.08;6.35;;;7.40;99.90;;;;;;5057115;28;20049;-86
2023/01/10 11:54:40;;;;;;;22.75;7.13;;;7.40;99.90;;;;;;5057417;28;20451;-86
2023/01/10 11:57:17;;;;;;;27.67;6.75;;;7.30;99.90;;;;;;5022302;28;20497;-86
2023/01/10 11:59:53;;;;;;;30.38;7.30;;;7.40;99.90;;;;;;5038920;28;20029;-86
2023/01/10 12:02:34;;;;;;;22.65;7.05;;;7.40;99.90;;;;;;5062632;28;20036;-86
2023/01/10 12:05:04;;;;;;;25.30;7.13;;;7.30;99.90;;;;;;5047123;28;20034;-85
2023/01/10 12:07:50;;;;;;;21.88;7.35;;;7.30;99.90;;;;;;5064201;28;20039;-84
2023/01/10 12:10:20;;;;;;;23.42;6.78;;;7.30;99.90;;;;;;5061802;28;20042;-84
2023/01/10 12:12:59;;;;;;;26.58;7.60;;;7.30;99.90;;;;;;5056852;28;20071;-85
2023/01/10 12:15:30;;;;;;;22.75;7.30;;;7.30;99.90;;;;;;5077245;28;20051;-85
2023/01/10 12:18:00;;;;;;;23.15;7.50;;;7.30;99.90;;;;;;5078008;28;20119;-85
2023/01/10 12:20:29;;;;;;;20.02;7.15;;;7.30;99.90;;;;;;5057587;28;20129;-85
2023/01/10 12:23:12;;;;;;;25.52;7.55;;;7.30;99.90;;;;;;5041989;28;20029;-85
2023/01/10 12:25:40;;;;;;;22.02;7.93;;;7.30;99.90;;;;;;5043503;28;20056;-85
2023/01/10 12:28:23;;;;;;;26.17;7.20;;;7.30;99.90;;;;;;5041016;28;20111;-84
2023/01/10 12:30:52;;;;;;;25.45;8.15;;;7.30;99.90;;;;;;5076637;28;20106;-86
2023/01/10 12:33:22;;;;;;;23.92;6.57;;;7.30;99.90;;;;;;5061910;28;20052;-85
2023/01/10 12:36:06;;;;;;;28.25;8.00;;;7.50;99.90;;;;;;5057381;28;20041;-85
2023/01/10 12:39:04;;;;;;;23.35;7.00;;;7.20;99.90;;;;;;5059278;28;20119;-85
2023/01/10 12:44:45;;;;;;;23.10;7.13;;;7.30;99.90;;;;;;5064170;28;20051;-85
2023/01/10 12:47:29;;;;;;;21.45;7.22;;;7.20;99.90;;;;;;5057964;28;20047;-86
2023/01/10 12:50:35;;;;;;;24.38;6.55;;;7.20;99.90;;;;;;5036810;28;20056;-85
2023/01/10 12:53:10;;;;;;;20.40;5.65;;;5.80;99.90;;;;;;5056121;28;20044;-84
2023/01/10 12:55:44;;;;;;;24.90;6.10;;;7.20;99.90;;;;;;5064710;28;20102;-84
2023/01/10 12:58:21;;;;;;;20.60;5.10;;;7.20;99.90;;;;;;5043852;28;20397;-85
2023/01/10 13:00:51;;;;;;;21.27;5.80;;;7.20;99.90;;;;;;5055441;28;20486;-86
2023/01/10 13:03:26;;;;;;;21.30;5.70;;;7.10;99.90;;;;;;5057395;28;20039;-85
2023/01/10 13:05:53;;;;;;;24.08;6.18;;;7.10;99.90;;;;;;5062784;28;20505;-85
2023/01/10 13:08:24;;;;;;;26.63;6.20;;;7.10;99.90;;;;;;5055415;28;20044;-85
2023/01/10 13:10:53;;;;;;;19.90;5.50;;;7.10;99.90;;;;;;5066099;28;20040;-85
2023/01/10 13:13:35;;;;;;;22.15;5.40;;;7.10;99.90;;;;;;5038736;28;20055;-85
2023/01/10 13:16:26;;;;;;;20.58;5.25;;;7.10;99.90;;;;;;5057018;28;20032;-85
2023/01/10 13:19:09;;;;;;;23.42;6.13;;;7.10;99.90;;;;;;5039035;28;20485;-85
2023/01/10 13:21:35;;;;;;;25.38;5.60;;;7.10;99.90;;;;;;5057143;28;20041;-85